Time;durP1;ratioP1;P1;durP2;ratioP2;P2;SDS_P1;SDS_P2;PMS_P1;PMS_P2;Temp;Humidity;BMP_temperature;BMP_pressure;BME280_temperature;BME280_humidity;BME280_pressure;Samples;Min_cycle;Max_cycle;Signal;HPM_P1;HPM_P2
2023/01/30 00:01:20;;;;;;;;;;;;;;;-3.40;95.06;97102.56;5076162;28;19959;-73
2023/01/30 00:03:46;;;;;;;;;;;;;;;-3.39;94.94;97100.81;5074936;28;20401;-73
2023/01/30 00:06:12;;;;;;;;;;;;;;;-3.40;95.27;97094.88;5076023;28;19952;-73
2023/01/30 00:08:38;;;;;;;;;;;;;;;-3.39;95.35;97086.22;5075741;28;19947;-73
2023/01/30 00:11:05;;;;;;;;;;;;;;;-3.38;94.90;97081.91;5075753;28;19952;-73
2023/01/30 00:13:31;;;;;;;;;;;;;;;-3.38;94.70;97074.22;5076010;28;19948;-73
2023/01/30 00:15:57;;;;;;;;;;;;;;;-3.40;94.47;97074.34;5075909;28;19958;-73
2023/01/30 00:18:23;;;;;;;;;;;;;;;-3.41;94.77;97071.91;5075494;28;20428;-73
2023/01/30 00:20:54;;;;;;;;;;;;;;;-3.44;94.23;97057.56;5075662;28;19967;-73
2023/01/30 00:23:19;;;;;;;;;;;;;;;-3.46;94.25;97059.44;5074906;28;20074;-74
2023/01/30 00:25:45;;;;;;;;;;;;;;;-3.49;93.80;97051.94;5075336;28;20405;-73
2023/01/30 00:28:11;;;;;;;;;;;;;;;-3.51;93.89;97035.84;5075686;28;20404;-73
2023/01/30 00:30:37;;;;;;;;;;;;;;;-3.54;95.83;97047.16;5075596;28;19951;-73
2023/01/30 00:33:03;;;;;;;;;;;;;;;-3.55;95.55;97039.59;5075327;28;19941;-73
2023/01/30 00:35:29;;;;;;;;;;;;;;;-3.57;95.38;97034.59;5075352;28;19959;-73
2023/01/30 00:37:59;;;;;;;;;;;;;;;-3.55;95.22;97042.16;5075147;28;19969;-74
2023/01/30 00:40:26;;;;;;;;;;;;;;;-3.56;94.55;97043.09;5075521;28;20331;-73
2023/01/30 00:48:23;;;;;;;;;;;;;;;-3.58;94.78;97024.44;5073714;28;19947;-73
2023/01/30 00:50:49;;;;;;;;;;;;;;;-3.58;94.35;97020.13;5074653;28;19954;-75
2023/01/30 00:53:15;;;;;;;;;;;;;;;-3.58;94.47;97019.31;5075187;28;20296;-73
2023/01/30 00:55:42;;;;;;;;;;;;;;;-3.59;94.51;97027.94;5075370;28;20319;-74
2023/01/30 00:58:08;;;;;;;;;;;;;;;-3.61;94.24;97030.63;5074737;28;19961;-73
2023/01/30 01:00:34;;;;;;;;;;;;;;;-3.61;93.77;97029.78;5074881;28;19947;-74
2023/01/30 01:03:00;;;;;;;;;;;;;;;-3.64;93.71;97025.72;5074968;28;19952;-72
2023/01/30 01:05:26;;;;;;;;;;;;;;;-3.64;93.84;97020.59;5074665;28;20426;-72
2023/01/30 01:07:52;;;;;;;;;;;;;;;-3.64;94.33;97032.59;5075463;28;20424;-72
2023/01/30 01:10:18;;;;;;;;;;;;;;;-3.65;94.35;97042.03;5074631;28;19958;-73
2023/01/30 01:12:45;;;;;;;;;;;;;;;-3.67;94.50;97049.03;5074941;28;19998;-72
2023/01/30 01:15:12;;;;;;;;;;;;;;;-3.68;94.06;97063.56;5074645;28;20357;-73
2023/01/30 01:17:38;;;;;;;;;;;;;;;-3.67;94.83;97064.41;5074775;28;19958;-73
2023/01/30 01:20:05;;;;;;;;;;;;;;;-3.68;94.57;97070.44;5074753;28;19947;-73
2023/01/30 01:22:31;;;;;;;;;;;;;;;-3.67;94.46;97074.66;5074396;28;19956;-73
2023/01/30 01:24:56;;;;;;;;;;;;;;;-3.66;94.87;97089.09;5074382;28;20010;-72
2023/01/30 01:27:22;;;;;;;;;;;;;;;-3.65;95.17;97092.47;5074313;28;19955;-72
2023/01/30 01:29:48;;;;;;;;;;;;;;;-3.67;95.44;97102.84;5074224;28;19975;-72
2023/01/30 01:32:14;;;;;;;;;;;;;;;-3.67;95.13;97097.72;5074290;28;19954;-73
2023/01/30 01:34:40;;;;;;;;;;;;;;;-3.69;94.76;97102.97;5074368;28;19955;-72
2023/01/30 01:37:06;;;;;;;;;;;;;;;-3.71;95.01;97104.81;5074077;28;20401;-73
2023/01/30 01:42:16;;;;;;;;;;;;;;;-3.69;95.02;97109.84;5073947;28;19978;-73
2023/01/30 01:45:01;;;;;;;;;;;;;;;-3.70;95.11;97091.06;5073786;28;20387;-73
2023/01/30 01:47:29;;;;;;;;;;;;;;;-3.70;94.98;97090.25;5074377;28;19949;-73
2023/01/30 01:49:55;;;;;;;;;;;;;;;-3.72;94.71;97095.47;5073004;28;19944;-73
2023/01/30 01:52:21;;;;;;;;;;;;;;;-3.71;94.49;97083.50;5074039;28;20040;-73
2023/01/30 01:54:50;;;;;;;;;;;;;;;-3.73;94.42;97077.66;5074006;28;20434;-73
2023/01/30 01:57:25;;;;;;;;;;;;;;;-3.74;94.54;97071.75;5073586;28;19971;-73
2023/01/30 01:59:53;;;;;;;;;;;;;;;-3.76;94.69;97063.34;5062517;28;19955;-72
2023/01/30 02:02:20;;;;;;;;;;;;;;;-3.77;94.79;97066.81;5073235;28;19952;-73
2023/01/30 02:05:05;;;;;;;;;;;;;;;-3.76;94.87;97083.00;5072807;28;19952;-72
2023/01/30 02:07:44;;;;;;;;;;;;;;;-3.76;95.38;97088.13;5059732;28;19942;-73
2023/01/30 02:10:13;;;;;;;;;;;;;;;-3.75;95.10;97097.47;5073815;28;19963;-73
2023/01/30 02:12:39;;;;;;;;;;;;;;;-3.74;95.38;97107.63;5073551;28;19963;-73
2023/01/30 02:15:07;;;;;;;;;;;;;;;-3.72;95.88;97097.22;5063794;28;19954;-72
2023/01/30 02:17:33;;;;;;;;;;;;;;;-3.74;95.50;97094.81;5073504;28;19954;-72
2023/01/30 02:20:06;;;;;;;;;;;;;;;-3.71;95.20;97098.88;5073395;28;19995;-72
2023/01/30 02:22:39;;;;;;;;;;;;;;;-3.70;95.71;97110.75;5073302;28;19957;-72
2023/01/30 02:25:23;;;;;;;;;;;;;;;-3.69;95.75;97114.97;5073923;28;19952;-73
2023/01/30 02:28:01;;;;;;;;;;;;;;;-3.70;95.93;97118.44;5073402;28;20313;-72
2023/01/30 02:30:45;;;;;;;;;;;;;;;-3.70;95.71;97108.19;5072649;28;19952;-72
2023/01/30 02:33:14;;;;;;;;;;;;;;;-3.71;95.39;97119.38;5071998;28;19959;-72
2023/01/30 02:36:03;;;;;;;;;;;;;;;-3.73;95.65;97098.19;5072887;28;19952;-72
2023/01/30 02:38:28;;;;;;;;;;;;;;;-3.78;96.11;97080.56;5073181;28;19965;-72
2023/01/30 02:40:57;;;;;;;;;;;;;;;-3.81;96.63;97098.72;5073189;28;19948;-72
2023/01/30 02:43:53;;;;;;;;;;;;;;;-3.83;96.13;97090.34;5072896;28;19978;-72
2023/01/30 02:46:26;;;;;;;;;;;;;;;-3.80;96.13;97112.34;5059018;28;20454;-72
2023/01/30 02:49:02;;;;;;;;;;;;;;;-3.78;96.19;97118.19;5073296;28;19951;-72
2023/01/30 02:51:29;;;;;;;;;;;;;;;-3.77;95.78;97094.19;5072940;28;19975;-71
2023/01/30 02:53:55;;;;;;;;;;;;;;;-3.78;96.47;97072.06;5072413;28;19951;-71
2023/01/30 02:56:21;;;;;;;;;;;;;;;-3.80;96.84;97061.94;5073196;28;19962;-71
2023/01/30 02:58:54;;;;;;;;;;;;;;;-3.78;96.58;97069.50;5073106;28;20435;-71
2023/01/30 03:01:37;;;;;;;;;;;;;;;-3.80;95.74;97077.31;5073229;28;19956;-71
2023/01/30 03:04:09;;;;;;;;;;;;;;;-3.78;96.22;97084.88;5073292;28;20422;-72
2023/01/30 03:06:41;;;;;;;;;;;;;;;-3.79;96.49;97090.94;5072837;28;19952;-72
2023/01/30 03:09:15;;;;;;;;;;;;;;;-3.80;96.03;97089.28;5073290;28;20316;-72
2023/01/30 03:12:01;;;;;;;;;;;;;;;-3.82;95.40;97093.69;5073038;28;19968;-73
2023/01/30 03:14:56;;;;;;;;;;;;;;;-3.83;95.30;97077.53;5075334;28;19955;-72
2023/01/30 03:17:23;;;;;;;;;;;;;;;-3.83;94.74;97079.28;5054254;28;19985;-72
2023/01/30 03:19:50;;;;;;;;;;;;;;;-3.86;95.01;97075.19;5076964;28;20041;-73
2023/01/30 03:22:16;;;;;;;;;;;;;;;-3.87;95.40;97053.03;5076368;28;20390;-72
2023/01/30 03:24:42;;;;;;;;;;;;;;;-3.87;95.41;97070.97;5076586;28;19954;-72
2023/01/30 03:27:09;;;;;;;;;;;;;;;-3.88;95.52;97061.69;5076703;28;19949;-71
2023/01/30 03:29:35;;;;;;;;;;;;;;;-3.90;95.25;97061.78;5076814;28;19949;-72
2023/01/30 03:32:01;;;;;;;;;;;;;;;-3.92;94.85;97042.34;5076608;28;20035;-73
2023/01/30 03:34:27;;;;;;;;;;;;;;;-3.93;94.54;97010.75;5076638;28;20330;-73
2023/01/30 03:36:53;;;;;;;;;;;;;;;-4.00;98.17;96985.72;5076574;28;19946;-72
2023/01/30 03:39:20;;;;;;;;;;;;;;;-4.11;98.94;96959.16;5076413;28;19953;-73
2023/01/30 03:41:45;;;;;;;;;;;;;;;-4.19;100.00;96958.91;5075566;28;20325;-72
2023/01/30 03:44:11;;;;;;;;;;;;;;;-4.25;100.00;96948.28;5076299;28;19959;-73
2023/01/30 03:46:37;;;;;;;;;;;;;;;-4.26;100.00;96962.00;5076377;28;19957;-73
2023/01/30 03:49:03;;;;;;;;;;;;;;;-4.25;100.00;96971.34;5076429;28;19952;-73
2023/01/30 03:51:29;;;;;;;;;;;;;;;-4.21;100.00;96981.25;5076208;28;19949;-73
2023/01/30 03:53:55;;;;;;;;;;;;;;;-4.12;100.00;97003.59;5076284;28;19952;-74
2023/01/30 03:56:21;;;;;;;;;;;;;;;-4.01;100.00;97007.13;5075978;28;20092;-74
2023/01/30 03:58:46;;;;;;;;;;;;;;;-3.94;100.00;97009.13;5075803;28;19968;-74
2023/01/30 04:01:12;;;;;;;;;;;;;;;-3.86;100.00;97023.94;5075945;28;19951;-73
2023/01/30 04:03:38;;;;;;;;;;;;;;;-3.82;100.00;97029.63;5076216;28;19993;-74
2023/01/30 04:06:04;;;;;;;;;;;;;;;-3.79;100.00;97032.00;5075915;28;20306;-74
2023/01/30 04:08:30;;;;;;;;;;;;;;;-3.76;99.77;97026.63;5075781;28;20359;-74
2023/01/30 04:10:56;;;;;;;;;;;;;;;-3.72;99.80;97023.72;5075881;28;19959;-72
2023/01/30 04:13:22;;;;;;;;;;;;;;;-3.65;99.93;97016.41;5075804;28;20012;-73
2023/01/30 04:15:47;;;;;;;;;;;;;;;-3.62;99.59;97016.16;5075793;28;20482;-73
2023/01/30 04:18:13;;;;;;;;;;;;;;;-3.59;99.22;97018.50;5074522;28;19973;-73
2023/01/30 04:20:39;;;;;;;;;;;;;;;-3.56;99.67;97031.09;5075598;28;19942;-73
2023/01/30 04:23:05;;;;;;;;;;;;;;;-3.53;99.53;97017.22;5074520;28;19961;-73
2023/01/30 04:25:31;;;;;;;;;;;;;;;-3.51;100.00;97015.34;5075095;28;19958;-73
2023/01/30 04:27:57;;;;;;;;;;;;;;;-3.50;100.00;97020.38;5075123;28;20329;-72
2023/01/30 04:30:23;;;;;;;;;;;;;;;-3.47;100.00;97021.88;5075409;28;19947;-73
2023/01/30 04:32:49;;;;;;;;;;;;;;;-3.47;100.00;97015.00;5075588;28;20352;-73
2023/01/30 04:35:15;;;;;;;;;;;;;;;-3.45;100.00;97017.44;5075540;28;19976;-74
2023/01/30 04:37:40;;;;;;;;;;;;;;;-3.44;100.00;97010.56;5075163;28;19966;-74
2023/01/30 04:40:06;;;;;;;;;;;;;;;-3.44;100.00;97013.97;5075626;28;19984;-72
2023/01/30 04:42:32;;;;;;;;;;;;;;;-3.42;100.00;97006.97;5074194;28;19977;-72
2023/01/30 04:44:58;;;;;;;;;;;;;;;-3.41;100.00;97013.72;5075334;28;19946;-72
2023/01/30 04:47:24;;;;;;;;;;;;;;;-3.39;100.00;97003.34;5075236;28;19955;-72
2023/01/30 04:49:50;;;;;;;;;;;;;;;-3.40;100.00;96997.41;5075025;28;19957;-71
2023/01/30 04:52:16;;;;;;;;;;;;;;;-3.38;100.00;97012.66;5075225;28;20101;-71
2023/01/30 04:54:41;;;;;;;;;;;;;;;-3.38;100.00;97028.91;5074947;28;19964;-71
2023/01/30 04:57:07;;;;;;;;;;;;;;;-3.37;100.00;97019.44;5075019;28;19979;-72
2023/01/30 04:59:33;;;;;;;;;;;;;;;-3.33;100.00;97025.97;5074963;28;20300;-71
2023/01/30 05:01:59;;;;;;;;;;;;;;;-3.29;100.00;97029.94;5074857;28;19954;-71
2023/01/30 05:04:25;;;;;;;;;;;;;;;-3.24;100.00;97037.28;5074791;28;19957;-72
2023/01/30 05:06:51;;;;;;;;;;;;;;;-3.21;100.00;97024.19;5074939;28;20007;-71
2023/01/30 05:09:16;;;;;;;;;;;;;;;-3.17;100.00;97021.31;5075161;28;19955;-71
2023/01/30 05:11:42;;;;;;;;;;;;;;;-3.14;100.00;97023.63;5074512;28;20023;-71
2023/01/30 05:14:08;;;;;;;;;;;;;;;-3.16;100.00;97015.22;5074689;28;20002;-72
2023/01/30 05:16:34;;;;;;;;;;;;;;;-3.18;100.00;97014.53;5107325;28;19954;-72
2023/01/30 05:19:00;;;;;;;;;;;;;;;-3.19;100.00;97005.22;5074430;28;19962;-72
2023/01/30 05:21:27;;;;;;;;;;;;;;;-3.17;100.00;97008.47;5074333;28;19949;-72
2023/01/30 05:23:54;;;;;;;;;;;;;;;-3.17;100.00;97003.34;5074554;28;19952;-72
2023/01/30 05:26:19;;;;;;;;;;;;;;;-3.15;100.00;96990.38;5074337;28;19954;-72
2023/01/30 05:28:53;;;;;;;;;;;;;;;-3.14;100.00;96977.44;5074430;28;20327;-72
2023/01/30 05:31:19;;;;;;;;;;;;;;;-3.14;100.00;96977.44;5074248;28;19954;-72
2023/01/30 05:33:45;;;;;;;;;;;;;;;-3.11;100.00;96979.78;5074174;28;19959;-72
2023/01/30 05:36:13;;;;;;;;;;;;;;;-3.05;100.00;96975.91;5073763;28;19957;-72
2023/01/30 05:38:41;;;;;;;;;;;;;;;-3.02;100.00;96972.28;5072576;28;20341;-72
2023/01/30 05:41:07;;;;;;;;;;;;;;;-2.98;100.00;96960.84;5074174;28;19952;-72
2023/01/30 05:43:34;;;;;;;;;;;;;;;-2.92;100.00;96971.47;5074038;28;20438;-72
2023/01/30 05:46:00;;;;;;;;;;;;;;;-2.89;100.00;96965.28;5073904;28;20439;-72
2023/01/30 05:48:27;;;;;;;;;;;;;;;-2.85;100.00;96971.78;5074034;28;19948;-72
2023/01/30 05:50:54;;;;;;;;;;;;;;;-2.81;100.00;96965.47;5074124;28;19955;-72
2023/01/30 05:53:21;;;;;;;;;;;;;;;-2.76;100.00;96976.19;5074486;28;19954;-72
2023/01/30 05:55:53;;;;;;;;;;;;;;;-2.73;100.00;96964.84;5074136;28;19958;-73
2023/01/30 05:58:19;;;;;;;;;;;;;;;-2.68;100.00;96970.47;5073888;28;19960;-72
2023/01/30 06:00:45;;;;;;;;;;;;;;;-2.65;100.00;96967.63;5073881;28;19997;-72
2023/01/30 06:03:11;;;;;;;;;;;;;;;-2.62;100.00;96979.44;5074060;28;19978;-72
2023/01/30 06:05:37;;;;;;;;;;;;;;;-2.59;100.00;96971.47;5073586;28;19997;-72
2023/01/30 06:08:03;;;;;;;;;;;;;;;-2.57;100.00;96970.41;5073598;28;19953;-72
2023/01/30 06:10:29;;;;;;;;;;;;;;;-2.55;100.00;96973.66;5073585;28;19958;-72
2023/01/30 06:12:55;;;;;;;;;;;;;;;-2.53;100.00;96968.41;5073906;28;19965;-72
2023/01/30 06:15:21;;;;;;;;;;;;;;;-2.52;100.00;96959.75;5073478;28;19992;-72
2023/01/30 06:17:46;;;;;;;;;;;;;;;-2.51;100.00;96958.84;5072577;28;19988;-72
2023/01/30 06:20:12;;;;;;;;;;;;;;;-2.47;99.91;96973.06;5073553;28;19960;-72
2023/01/30 06:22:38;;;;;;;;;;;;;;;-2.45;99.84;96958.34;5072265;28;20028;-73
2023/01/30 06:25:04;;;;;;;;;;;;;;;-2.43;99.46;96955.66;5073607;28;19956;-72
2023/01/30 06:27:30;;;;;;;;;;;;;;;-2.43;98.50;96948.75;5073672;28;20312;-72
2023/01/30 06:29:56;;;;;;;;;;;;;;;-2.40;98.82;96948.50;5073290;28;19948;-72
2023/01/30 06:32:22;;;;;;;;;;;;;;;-2.39;98.32;96939.03;5073934;28;20023;-72
2023/01/30 06:34:48;;;;;;;;;;;;;;;-2.38;98.23;96935.53;5073425;28;19943;-72
2023/01/30 06:37:13;;;;;;;;;;;;;;;-2.38;98.57;96936.34;5073830;28;19952;-72
2023/01/30 06:39:39;;;;;;;;;;;;;;;-2.38;98.75;96943.25;5072004;28;19971;-72
2023/01/30 06:42:06;;;;;;;;;;;;;;;-2.38;98.99;96945.81;5073179;28;20034;-72
2023/01/30 06:44:32;;;;;;;;;;;;;;;-2.36;99.02;96952.44;5073311;28;19959;-72
2023/01/30 06:46:57;;;;;;;;;;;;;;;-2.36;98.77;96939.59;5073522;28;20047;-72
2023/01/30 06:49:23;;;;;;;;;;;;;;;-2.36;99.09;96942.19;5076029;28;19960;-72
2023/01/30 06:51:49;;;;;;;;;;;;;;;-2.37;98.87;96935.44;5077563;28;19987;-72
2023/01/30 06:54:15;;;;;;;;;;;;;;;-2.39;99.25;96942.44;5077241;28;20454;-72
2023/01/30 06:56:41;;;;;;;;;;;;;;;-2.38;98.86;96938.09;5077373;28;20410;-72
2023/01/30 06:59:07;;;;;;;;;;;;;;;-2.38;99.27;96927.84;5077270;28;19966;-72
2023/01/30 07:01:33;;;;;;;;;;;;;;;-2.38;98.99;96930.41;5109689;28;20310;-72
2023/01/30 07:03:58;;;;;;;;;;;;;;;-2.39;99.13;96926.19;5077264;28;19985;-72
2023/01/30 07:06:27;;;;;;;;;;;;;;;-2.40;98.83;96922.00;5077007;28;19946;-72
2023/01/30 07:08:57;;;;;;;;;;;;;;;-2.39;98.60;96915.91;5077107;28;19952;-73
2023/01/30 07:11:23;;;;;;;;;;;;;;;-2.40;98.53;96914.31;5077232;28;19961;-73
2023/01/30 07:13:49;;;;;;;;;;;;;;;-2.42;98.71;96913.63;5076840;28;19952;-73
2023/01/30 07:16:15;;;;;;;;;;;;;;;-2.43;98.74;96924.84;5077049;28;19959;-73
2023/01/30 07:18:41;;;;;;;;;;;;;;;-2.41;98.63;96931.47;5077005;28;20011;-72
2023/01/30 07:21:07;;;;;;;;;;;;;;;-2.38;98.39;96935.53;5077000;28;19953;-74
2023/01/30 07:23:33;;;;;;;;;;;;;;;-2.36;97.63;96939.59;5076897;28;20369;-72
2023/01/30 07:26:01;;;;;;;;;;;;;;;-2.38;97.54;96946.63;5077001;28;19945;-72
2023/01/30 07:28:27;;;;;;;;;;;;;;;-2.37;97.19;96957.69;5076086;28;19941;-73
2023/01/30 07:30:53;;;;;;;;;;;;;;;-2.35;97.33;96954.09;5076702;28;20000;-73
2023/01/30 07:33:19;;;;;;;;;;;;;;;-2.34;97.45;96960.84;5076537;28;19984;-73
2023/01/30 07:35:45;;;;;;;;;;;;;;;-2.33;96.87;96959.94;5076468;28;19954;-73
2023/01/30 07:38:11;;;;;;;;;;;;;;;-2.34;97.63;96952.34;5076687;28;19962;-72
2023/01/30 07:40:37;;;;;;;;;;;;;;;-2.34;97.01;96971.13;5076183;28;19958;-72
2023/01/30 07:43:05;;;;;;;;;;;;;;;-2.32;97.12;96971.00;5076590;28;20030;-73
2023/01/30 07:45:35;;;;;;;;;;;;;;;-2.32;96.47;96974.38;5076276;28;19957;-72
2023/01/30 07:48:01;;;;;;;;;;;;;;;-2.31;97.22;96970.06;5075559;28;19953;-72
2023/01/30 07:50:27;;;;;;;;;;;;;;;-2.26;97.44;96960.22;5076524;28;19954;-72
2023/01/30 07:52:53;;;;;;;;;;;;;;;-2.20;97.05;96957.16;5076223;28;20011;-74
2023/01/30 07:55:19;;;;;;;;;;;;;;;-2.17;96.34;96966.38;5076365;28;20003;-73
2023/01/30 07:57:45;;;;;;;;;;;;;;;-2.15;96.79;96965.31;5076312;28;19951;-72
2023/01/30 08:00:11;;;;;;;;;;;;;;;-2.11;96.48;96971.81;5073463;28;19959;-72
2023/01/30 08:02:37;;;;;;;;;;;;;;;-2.10;96.89;96977.78;5076415;28;19952;-72
2023/01/30 08:05:03;;;;;;;;;;;;;;;-2.14;96.35;96974.66;5076012;28;19952;-73
2023/01/30 08:07:29;;;;;;;;;;;;;;;-2.16;96.87;96963.69;5076080;28;19949;-73
2023/01/30 08:09:55;;;;;;;;;;;;;;;-2.15;97.78;96949.88;5075995;28;20554;-73
2023/01/30 08:12:20;;;;;;;;;;;;;;;-2.13;97.98;96945.44;5075882;28;20363;-72
2023/01/30 08:14:46;;;;;;;;;;;;;;;-2.09;97.20;96946.81;5075902;28;20412;-73
2023/01/30 08:17:12;;;;;;;;;;;;;;;-1.97;97.25;96962.19;5075857;28;19950;-72
2023/01/30 08:19:38;;;;;;;;;;;;;;;-1.76;96.39;96957.81;5075738;28;19966;-73
2023/01/30 08:22:04;;;;;;;;;;;;;;;-1.69;95.56;96960.69;5075647;28;19946;-72
2023/01/30 08:24:30;;;;;;;;;;;;;;;-1.68;95.53;96970.84;5075626;28;19951;-73
2023/01/30 08:26:55;;;;;;;;;;;;;;;-1.69;95.40;96984.63;5075790;28;20306;-72
2023/01/30 08:29:21;;;;;;;;;;;;;;;-1.71;95.19;96978.00;5075948;28;20377;-73
2023/01/30 08:31:47;;;;;;;;;;;;;;;-1.71;95.82;96978.81;5075374;28;19948;-72
2023/01/30 08:34:13;;;;;;;;;;;;;;;-1.71;94.36;96957.44;5075397;28;19958;-73
2023/01/30 08:36:39;;;;;;;;;;;;;;;-1.72;95.31;96963.50;5060131;28;20373;-73
2023/01/30 08:39:05;;;;;;;;;;;;;;;-1.72;95.15;96961.78;5075483;28;20397;-73
2023/01/30 08:41:30;;;;;;;;;;;;;;;-1.68;95.73;96959.72;5075193;28;20025;-72
2023/01/30 08:43:56;;;;;;;;;;;;;;;-1.67;95.27;96963.94;5074984;28;19960;-72
2023/01/30 08:46:22;;;;;;;;;;;;;;;-1.68;95.39;96965.72;5075483;28;20325;-72
2023/01/30 08:48:48;;;;;;;;;;;;;;;-1.66;95.80;96970.72;5075375;28;19982;-72
2023/01/30 08:51:14;;;;;;;;;;;;;;;-1.60;95.49;96971.97;5073829;28;20454;-73
2023/01/30 08:53:40;;;;;;;;;;;;;;;-1.56;96.06;96974.13;5074973;28;20310;-73
2023/01/30 08:56:06;;;;;;;;;;;;;;;-1.52;96.36;96952.38;5075096;28;19958;-73
2023/01/30 08:58:32;;;;;;;;;;;;;;;-1.42;96.02;96954.19;5075084;28;19990;-73
2023/01/30 09:00:57;;;;;;;;;;;;;;;-1.38;94.34;96942.69;5075081;28;19968;-72
2023/01/30 09:03:23;;;;;;;;;;;;;;;-1.34;94.18;96950.00;5074756;28;20323;-72
2023/01/30 09:05:53;;;;;;;;;;;;;;;-1.15;93.90;96938.94;5074803;28;20040;-73
2023/01/30 09:08:19;;;;;;;;;;;;;;;-0.94;92.93;96925.16;5074747;28;19946;-73
2023/01/30 09:10:45;;;;;;;;;;;;;;;-0.75;92.97;96917.44;5074328;28;20019;-72
2023/01/30 09:13:10;;;;;;;;;;;;;;;-0.50;91.54;96900.63;5075458;28;19986;-72
2023/01/30 09:15:36;;;;;;;;;;;;;;;-0.28;92.04;96896.91;5075107;28;19955;-72
2023/01/30 09:18:03;;;;;;;;;;;;;;;-0.07;91.93;96891.59;5074704;28;19989;-72
2023/01/30 09:20:29;;;;;;;;;;;;;;;0.23;91.91;96894.88;5074590;28;20320;-72
2023/01/30 09:22:55;;;;;;;;;;;;;;;0.52;89.14;96865.56;5074551;28;19985;-71
2023/01/30 09:25:21;;;;;;;;;;;;;;;0.76;89.39;96872.75;5074512;28;19961;-71
2023/01/30 09:27:48;;;;;;;;;;;;;;;0.93;87.89;96856.47;5074727;28;20317;-71
2023/01/30 09:30:14;;;;;;;;;;;;;;;0.99;87.50;96870.56;5074481;28;20372;-71
2023/01/30 09:32:40;;;;;;;;;;;;;;;1.16;88.27;96871.53;5074485;28;20048;-71
2023/01/30 09:35:07;;;;;;;;;;;;;;;1.39;87.41;96861.53;5074518;28;20017;-72
2023/01/30 09:37:33;;;;;;;;;;;;;;;1.59;85.30;96837.13;5074213;28;19951;-72
2023/01/30 09:39:59;;;;;;;;;;;;;;;1.67;86.11;96846.72;5074325;28;19972;-72
2023/01/30 09:42:31;;;;;;;;;;;;;;;1.76;87.83;96863.06;5072793;28;20006;-72
2023/01/30 09:45:00;;;;;;;;;;;;;;;1.95;85.86;96836.19;5074367;28;20447;-72
2023/01/30 09:47:45;;;;;;;;;;;;;;;1.98;86.06;96851.44;5074181;28;20417;-72
2023/01/30 09:50:19;;;;;;;;;;;;;;;1.88;87.07;96851.53;5059489;28;19952;-72
2023/01/30 09:52:45;;;;;;;;;;;;;;;1.80;87.74;96859.22;5074167;28;19946;-72
2023/01/30 09:55:16;;;;;;;;;;;;;;;1.64;87.71;96870.28;5074602;28;19957;-72
2023/01/30 09:57:44;;;;;;;;;;;;;;;1.49;89.53;96877.78;5060388;28;19957;-72
2023/01/30 10:00:14;;;;;;;;;;;;;;;1.38;90.50;96880.59;5074129;28;19967;-72
2023/01/30 10:03:03;;;;;;;;;;;;;;;1.30;91.48;96878.75;5064479;28;19951;-72
2023/01/30 10:05:41;;;;;;;;;;;;;;;1.23;92.88;96882.88;5065578;28;19948;-72
2023/01/30 10:08:25;;;;;;;;;;;;;;;1.21;93.94;96877.84;5072911;28;19952;-72
2023/01/30 10:11:03;;;;;;;;;;;;;;;1.26;94.71;96871.44;5074040;28;19950;-72
2023/01/30 10:13:37;;;;;;;;;;;;;;;1.32;94.45;96863.88;5074465;28;19949;-71
2023/01/30 10:16:14;;;;;;;;;;;;;;;1.37;94.33;96848.75;5072978;28;19946;-72
2023/01/30 10:18:59;;;;;;;;;;;;;;;1.38;93.68;96837.44;5064094;28;19981;-72
2023/01/30 10:21:31;;;;;;;;;;;;;;;1.39;93.89;96846.84;5073503;28;19956;-72
2023/01/30 10:24:06;;;;;;;;;;;;;;;1.41;94.17;96849.28;5072957;28;19954;-72
2023/01/30 10:26:32;;;;;;;;;;;;;;;1.40;94.94;96852.81;5073546;28;19953;-71
2023/01/30 10:29:01;;;;;;;;;;;;;;;1.42;95.01;96861.22;5073623;28;20425;-72
2023/01/30 10:31:34;;;;;;;;;;;;;;;1.50;94.54;96848.38;5073918;28;19946;-72
2023/01/30 10:34:02;;;;;;;;;;;;;;;1.51;94.48;96844.84;5073525;28;19945;-72
2023/01/30 10:36:33;;;;;;;;;;;;;;;1.63;93.89;96841.03;5073617;28;20410;-72
2023/01/30 10:39:01;;;;;;;;;;;;;;;1.87;92.15;96830.97;5073330;28;19964;-72
2023/01/30 10:41:27;;;;;;;;;;;;;;;1.91;91.08;96807.25;5073204;28;19954;-72
2023/01/30 10:43:55;;;;;;;;;;;;;;;1.87;90.53;96803.38;5073616;28;19957;-72
2023/01/30 10:46:31;;;;;;;;;;;;;;;1.84;90.31;96811.41;5073300;28;19954;-72
2023/01/30 10:48:58;;;;;;;;;;;;;;;1.83;94.33;96846.00;5073286;28;19947;-71
2023/01/30 10:51:32;;;;;;;;;;;;;;;2.10;93.26;96820.91;5073393;28;19952;-71
2023/01/30 10:54:01;;;;;;;;;;;;;;;2.14;90.27;96789.41;5073583;28;19944;-71
2023/01/30 10:56:27;;;;;;;;;;;;;;;2.14;91.26;96804.94;5073233;28;19948;-72
2023/01/30 10:58:58;;;;;;;;;;;;;;;2.15;90.69;96818.69;5073328;28;19958;-72
2023/01/30 11:01:39;;;;;;;;;;;;;;;2.11;91.05;96801.84;5073247;28;19961;-71
2023/01/30 11:04:23;;;;;;;;;;;;;;;1.98;91.71;96813.44;5073477;28;19950;-72
2023/01/30 11:06:50;;;;;;;;;;;;;;;1.93;92.37;96807.91;5073548;28;19942;-72
2023/01/30 11:09:15;;;;;;;;;;;;;;;1.91;93.36;96821.94;5073195;28;19954;-72
2023/01/30 11:11:47;;;;;;;;;;;;;;;1.81;94.03;96822.88;5073511;28;19958;-71
2023/01/30 11:14:13;;;;;;;;;;;;;;;1.83;94.20;96826.13;5073186;28;20319;-72
2023/01/30 11:16:49;;;;;;;;;;;;;;;1.78;94.08;96827.53;5073507;28;19957;-72
2023/01/30 11:19:16;;;;;;;;;;;;;;;1.73;94.50;96834.97;5073254;28;19961;-72
2023/01/30 11:21:47;;;;;;;;;;;;;;;1.72;94.21;96828.16;5073318;28;19960;-72
2023/01/30 11:24:16;;;;;;;;;;;;;;;1.71;94.38;96822.19;5073091;28;19958;-71
2023/01/30 11:26:42;;;;;;;;;;;;;;;1.70;94.51;96822.31;5073338;28;19954;-72
2023/01/30 11:29:26;;;;;;;;;;;;;;;1.68;94.71;96822.50;5073200;28;19955;-72
2023/01/30 11:31:52;;;;;;;;;;;;;;;1.68;94.50;96819.06;5072849;28;19941;-72
2023/01/30 11:34:20;;;;;;;;;;;;;;;1.63;94.63;96812.59;5073915;28;20325;-72
2023/01/30 11:36:46;;;;;;;;;;;;;;;1.63;94.52;96801.44;5076784;28;19943;-72
2023/01/30 11:39:11;;;;;;;;;;;;;;;1.62;95.59;96798.06;5076916;28;20014;-72
2023/01/30 11:41:41;;;;;;;;;;;;;;;1.63;95.88;96804.81;5076543;28;19950;-72
2023/01/30 11:44:08;;;;;;;;;;;;;;;1.63;95.40;96806.59;5076703;28;19952;-72
2023/01/30 11:46:35;;;;;;;;;;;;;;;1.63;95.84;96809.19;5076660;28;19958;-72
2023/01/30 11:49:21;;;;;;;;;;;;;;;1.68;95.57;96806.16;5076621;28;19952;-72
2023/01/30 11:51:51;;;;;;;;;;;;;;;1.69;95.79;96813.75;5076771;28;19949;-72
2023/01/30 11:54:18;;;;;;;;;;;;;;;1.65;96.14;96821.97;5076609;28;20300;-72
2023/01/30 11:56:47;;;;;;;;;;;;;;;1.59;96.25;96820.81;5076547;28;19962;-72
2023/01/30 11:59:29;;;;;;;;;;;;;;;1.51;95.93;96807.81;5075680;28;19970;-72
2023/01/30 12:02:13;;;;;;;;;;;;;;;1.43;96.53;96818.94;5076700;28;19960;-72
2023/01/30 12:04:41;;;;;;;;;;;;;;;1.38;97.29;96829.69;5076300;28;19977;-72
2023/01/30 12:07:15;;;;;;;;;;;;;;;1.36;97.32;96816.13;5076210;28;20408;-72
2023/01/30 12:09:41;;;;;;;;;;;;;;;1.42;97.10;96807.75;5076435;28;19949;-72
2023/01/30 12:12:27;;;;;;;;;;;;;;;1.45;96.73;96804.09;5075841;28;20392;-72
2023/01/30 12:15:00;;;;;;;;;;;;;;;1.44;96.99;96812.00;5076279;28;19958;-72
2023/01/30 12:17:33;;;;;;;;;;;;;;;1.38;98.17;96821.94;5076442;28;19946;-72
2023/01/30 12:20:31;;;;;;;;;;;;;;;1.35;98.43;96822.25;5075844;28;19958;-72
2023/01/30 12:22:57;;;;;;;;;;;;;;;1.37;99.27;96810.00;5041548;28;19943;-72
2023/01/30 12:25:31;;;;;;;;;;;;;;;1.40;99.72;96804.53;5076286;28;20003;-71
2023/01/30 12:28:21;;;;;;;;;;;;;;;1.46;99.68;96797.94;5075913;28;19950;-72
2023/01/30 12:31:01;;;;;;;;;;;;;;;1.54;99.44;96792.03;5067908;28;19944;-72
2023/01/30 12:33:28;;;;;;;;;;;;;;;1.66;99.45;96785.63;5064899;28;19961;-72
2023/01/30 12:36:15;;;;;;;;;;;;;;;1.71;97.72;96780.00;5075557;28;20396;-72
2023/01/30 12:38:54;;;;;;;;;;;;;;;1.74;98.14;96787.44;5075620;28;19951;-72
2023/01/30 12:41:30;;;;;;;;;;;;;;;1.75;99.10;96792.47;5063639;28;19957;-72
2023/01/30 12:43:56;;;;;;;;;;;;;;;1.78;99.17;96781.78;5075695;28;19968;-71
2023/01/30 12:46:35;;;;;;;;;;;;;;;1.79;98.80;96792.97;5074746;28;19955;-71
2023/01/30 12:49:20;;;;;;;;;;;;;;;1.79;99.61;96800.72;5075463;28;19963;-72
2023/01/30 12:51:54;;;;;;;;;;;;;;;1.83;99.28;96797.69;5075346;28;20314;-72
2023/01/30 12:54:38;;;;;;;;;;;;;;;1.89;99.49;96793.69;5075236;28;20424;-72
2023/01/30 12:57:13;;;;;;;;;;;;;;;1.92;98.05;96783.00;5075215;28;19948;-72
2023/01/30 12:59:54;;;;;;;;;;;;;;;1.95;97.96;96781.88;5075061;28;19964;-73
2023/01/30 13:02:23;;;;;;;;;;;;;;;1.98;98.89;96786.75;5066840;28;19948;-71
2023/01/30 13:05:01;;;;;;;;;;;;;;;2.05;99.02;96797.28;5075025;28;19944;-72